Time;durP1;ratioP1;P1;durP2;ratioP2;P2;SDS_P1;SDS_P2;PMS_P1;PMS_P2;Temp;Humidity;BMP_temperature;BMP_pressure;BME280_temperature;BME280_humidity;BME280_pressure;Samples;Min_cycle;Max_cycle;Signal;HPM_P1;HPM_P2
2022/05/27 00:00:21;;;;;;;3.35;1.55;;;;;;;21.74;40.62;94412.66;4980401;28;20026;-73
2022/05/27 00:02:50;;;;;;;5.20;2.22;;;;;;;21.71;40.78;94413.38;4980080;28;20112;-74
2022/05/27 00:05:17;;;;;;;3.20;1.65;;;;;;;21.67;40.47;94411.78;4981444;28;20496;-74
2022/05/27 00:07:43;;;;;;;3.95;1.30;;;;;;;21.48;40.58;94385.63;4980425;28;20413;-73
2022/05/27 00:10:10;;;;;;;4.32;2.00;;;;;;;21.66;40.51;94412.91;4980889;28;20038;-73
2022/05/27 00:12:35;;;;;;;2.65;1.40;;;;;;;21.66;40.80;94408.28;4978653;28;20073;-73
2022/05/27 00:15:01;;;;;;;2.60;1.90;;;;;;;21.63;40.66;94402.84;4982974;28;20117;-74
2022/05/27 00:17:27;;;;;;;3.85;1.73;;;;;;;21.62;40.30;94414.81;4978954;28;20038;-74
2022/05/27 00:19:53;;;;;;;3.47;1.42;;;;;;;21.50;40.57;94412.31;4977931;28;20447;-73
2022/05/27 00:22:18;;;;;;;3.20;1.85;;;;;;;21.39;40.54;94417.59;4979672;28;20504;-72
2022/05/27 00:24:44;;;;;;;3.15;1.70;;;;;;;21.09;40.82;94398.63;4980202;28;20039;-73
2022/05/27 00:27:09;;;;;;;3.97;2.78;;;;;;;21.02;41.30;94398.56;4980539;28;20029;-73
2022/05/27 00:29:35;;;;;;;4.50;2.20;;;;;;;21.18;40.93;94409.97;4979615;28;20030;-73
2022/05/27 00:32:02;;;;;;;3.38;1.52;;;;;;;21.01;41.27;94408.59;4982247;28;20038;-74
2022/05/27 00:34:28;;;;;;;2.05;1.50;;;;;;;21.07;41.24;94400.91;4979665;28;20034;-73
2022/05/27 00:36:53;;;;;;;5.50;2.25;;;;;;;20.95;41.40;94376.81;4979694;28;20069;-74
2022/05/27 00:39:19;;;;;;;1.88;1.60;;;;;;;20.48;41.37;94304.28;4978612;28;20061;-73
2022/05/27 00:41:44;;;;;;;5.72;2.08;;;;;;;21.20;40.57;94404.97;4975327;28;20646;-73
2022/05/27 00:44:10;;;;;;;2.08;1.65;;;;;;;21.07;40.89;94406.31;4982897;28;20159;-72
2022/05/27 00:46:39;;;;;;;2.38;1.40;;;;;;;20.76;41.21;94388.47;4986327;28;20505;-74
2022/05/27 00:49:10;;;;;;;2.60;1.40;;;;;;;20.78;41.38;94401.63;4984505;28;20054;-74
2022/05/27 00:51:49;;;;;;;2.58;1.48;;;;;;;20.54;41.48;94379.25;4981932;28;20050;-74
2022/05/27 00:54:19;;;;;;;2.20;1.58;;;;;;;20.73;41.40;94401.94;4986737;28;20018;-73
2022/05/27 00:56:49;;;;;;;2.30;1.60;;;;;;;20.73;41.34;94402.69;4983127;28;20014;-73
2022/05/27 00:59:23;;;;;;;6.97;1.90;;;;;;;20.81;41.31;94400.91;4983131;28;20137;-72
2022/05/27 01:01:49;;;;;;;3.83;2.08;;;;;;;20.87;41.04;94402.19;4985160;28;20393;-73
2022/05/27 01:04:16;;;;;;;2.55;1.55;;;;;;;20.89;41.13;94403.38;4981139;28;20137;-73
2022/05/27 01:06:41;;;;;;;2.42;1.83;;;;;;;20.91;40.91;94403.81;4982045;28;20049;-73
2022/05/27 01:09:06;;;;;;;5.43;1.60;;;;;;;20.92;40.55;94402.63;4977475;28;20023;-72
2022/05/27 01:11:40;;;;;;;5.97;1.75;;;;;;;20.94;40.53;94405.75;4971494;28;20035;-72
2022/05/27 01:14:49;;;;;;;4.03;2.13;;;;;;;20.83;40.58;94395.91;4979941;28;20045;-73
2022/05/27 01:17:45;;;;;;;2.17;1.70;;;;;;;20.66;41.26;94382.91;4984395;28;20527;-73
2022/05/27 01:20:23;;;;;;;1.95;1.50;;;;;;;20.70;41.09;94386.44;4983389;28;20026;-73
2022/05/27 01:23:04;;;;;;;2.58;1.77;;;;;;;20.75;40.89;94378.81;4985742;28;20192;-73
2022/05/27 01:25:35;;;;;;;1.80;1.40;;;;;;;20.78;40.80;94382.69;4982364;28;20122;-74
2022/05/27 01:28:46;;;;;;;2.00;1.60;;;;;;;20.83;40.34;94377.75;4971251;28;20292;-73
2022/05/27 01:31:31;;;;;;;2.13;1.65;;;;;;;20.76;40.50;94371.47;4984037;28;20158;-73
2022/05/27 01:34:03;;;;;;;3.53;1.92;;;;;;;20.82;40.62;94372.72;4973660;28;20100;-73
2022/05/27 01:37:06;;;;;;;2.53;1.88;;;;;;;20.74;41.00;94366.44;4986229;28;20065;-73
2022/05/27 01:39:37;;;;;;;8.35;2.72;;;;;;;20.78;40.84;94367.25;4979625;28;20034;-73
2022/05/27 01:42:38;;;;;;;3.50;1.95;;;;;;;20.82;40.44;94367.31;4985723;28;20034;-73
2022/05/27 01:45:34;;;;;;;2.35;1.60;;;;;;;20.82;41.15;94372.72;4985676;28;20045;-74
2022/05/27 01:48:13;;;;;;;2.75;1.77;;;;;;;20.75;41.17;94356.41;4982036;28;20163;-74
2022/05/27 01:50:57;;;;;;;3.63;1.77;;;;;;;20.87;41.03;94372.44;4981246;28;20034;-75
2022/05/27 01:53:34;;;;;;;2.25;1.65;;;;;;;20.92;41.01;94367.47;4983483;28;20123;-73
2022/05/27 01:56:26;;;;;;;14.18;2.00;;;;;;;20.90;41.31;94364.38;4983007;28;20103;-74
2022/05/27 01:59:11;;;;;;;3.33;2.30;;;;;;;20.93;41.45;94368.25;4983936;28;20030;-73
2022/05/27 02:01:41;;;;;;;6.32;2.15;;;;;;;20.78;41.80;94367.25;4986398;28;20072;-73
2022/05/27 02:04:15;;;;;;;3.92;2.15;;;;;;;20.70;42.09;94359.41;4983588;28;20069;-73
2022/05/27 02:06:49;;;;;;;4.80;1.73;;;;;;;20.75;41.80;94369.91;4983296;28;20042;-73
2022/05/27 02:09:20;;;;;;;2.42;1.33;;;;;;;20.70;42.09;94370.22;4986083;28;20080;-74
2022/05/27 02:11:49;;;;;;;3.90;2.00;;;;;;;20.63;42.23;94376.28;4983310;28;20373;-73
2022/05/27 02:14:22;;;;;;;2.20;1.63;;;;;;;20.67;42.87;94381.78;4983040;28;20041;-73
2022/05/27 02:16:54;;;;;;;3.88;2.03;;;;;;;20.57;42.43;94372.34;4984661;28;20034;-73
2022/05/27 02:19:35;;;;;;;4.22;2.17;;;;;;;20.47;42.49;94360.25;4985044;28;20030;-72
2022/05/27 02:22:07;;;;;;;4.28;1.73;;;;;;;20.47;42.84;94368.34;4983405;28;20038;-72
2022/05/27 02:24:39;;;;;;;5.05;1.73;;;;;;;20.43;42.84;94370.22;4986611;28;20065;-73
2022/05/27 02:27:43;;;;;;;2.38;1.70;;;;;;;20.34;42.65;94358.06;4982779;28;20026;-73
2022/05/27 02:30:12;;;;;;;1.83;1.60;;;;;;;20.35;42.90;94370.44;4982613;28;20030;-73
2022/05/27 02:32:42;;;;;;;2.67;2.08;;;;;;;20.28;42.99;94368.44;4983645;28;20038;-73
2022/05/27 02:35:28;;;;;;;3.70;1.95;;;;;;;20.33;42.90;94378.16;4983607;28;20449;-73
2022/05/27 02:37:56;;;;;;;4.40;1.90;;;;;;;20.30;42.98;94376.94;4983275;28;20465;-73
2022/05/27 02:40:32;;;;;;;4.63;2.05;;;;;;;20.24;43.15;94386.47;4984325;28;20029;-72
2022/05/27 02:43:35;;;;;;;3.85;1.80;;;;;;;20.14;43.23;94379.72;4983189;28;20178;-73
2022/05/27 02:46:30;;;;;;;1.77;1.38;;;;;;;20.05;43.42;94383.78;4984502;28;20049;-72
2022/05/27 02:49:05;;;;;;;2.47;1.75;;;;;;;20.03;43.60;94378.78;4983937;28;20050;-73
2022/05/27 02:51:33;;;;;;;2.95;2.25;;;;;;;20.01;43.70;94382.94;4980210;28;20029;-72
2022/05/27 02:54:15;;;;;;;3.63;1.80;;;;;;;20.05;43.77;94378.38;4983035;28;20113;-73
2022/05/27 02:56:50;;;;;;;2.17;1.80;;;;;;;19.96;43.47;94364.34;4984353;28;20502;-73
2022/05/27 02:59:18;;;;;;;6.50;2.85;;;;;;;19.89;43.38;94369.63;4981462;28;20042;-73
2022/05/27 03:01:47;;;;;;;3.30;2.35;;;;;;;19.99;43.42;94385.25;4982480;28;20038;-74
2022/05/27 03:04:14;;;;;;;2.13;1.80;;;;;;;20.00;43.44;94381.38;4980513;28;20038;-73
2022/05/27 03:07:20;;;;;;;4.47;2.22;;;;;;;20.01;43.86;94386.44;4984798;28;20056;-73
2022/05/27 03:10:01;;;;;;;3.72;2.85;;;;;;;19.64;43.95;94336.78;4982872;28;20042;-73
2022/05/27 03:12:59;;;;;;;4.75;1.98;;;;;;;19.93;43.71;94386.66;4980909;28;20033;-74
2022/05/27 03:15:35;;;;;;;2.28;1.85;;;;;;;19.85;44.05;94390.38;4975758;28;20030;-72
2022/05/27 03:18:24;;;;;;;9.68;2.50;;;;;;;19.77;44.59;94392.16;4980798;28;20130;-73
2022/05/27 03:21:03;;;;;;;3.47;1.73;;;;;;;19.65;44.84;94387.69;4981309;28;20077;-73
2022/05/27 03:23:38;;;;;;;4.00;2.00;;;;;;;19.65;44.84;94392.31;4982393;28;20393;-73
2022/05/27 03:26:18;;;;;;;2.85;1.85;;;;;;;19.54;45.32;94384.03;4981911;28;20582;-73
2022/05/27 03:28:59;;;;;;;6.22;2.47;;;;;;;19.62;45.25;94391.09;4980625;28;20388;-73
2022/05/27 03:31:31;;;;;;;4.38;2.28;;;;;;;19.63;45.08;94389.97;4981639;28;20129;-73
2022/05/27 03:34:07;;;;;;;2.90;2.00;;;;;;;19.53;45.46;94376.28;4983095;28;20104;-73
2022/05/27 03:36:49;;;;;;;10.32;3.15;;;;;;;19.63;45.54;94384.56;4982612;28;20423;-72
2022/05/27 03:39:42;;;;;;;3.78;2.40;;;;;;;19.59;45.91;94382.94;4983603;28;20068;-73
2022/05/27 03:42:09;;;;;;;5.75;2.65;;;;;;;19.58;46.14;94376.78;4981660;28;20128;-73
2022/05/27 03:44:35;;;;;;;4.78;2.38;;;;;;;19.56;46.25;94376.34;4982131;28;20487;-72
2022/05/27 03:47:01;;;;;;;5.95;2.78;;;;;;;19.68;46.42;94386.19;4986156;28;20239;-73
2022/05/27 03:49:27;;;;;;;4.50;2.63;;;;;;;19.64;46.72;94380.75;4981329;28;20034;-73
2022/05/27 03:52:11;;;;;;;3.53;2.65;;;;;;;19.66;46.86;94380.38;4981681;28;20562;-73
2022/05/27 03:54:36;;;;;;;5.55;2.70;;;;;;;19.73;46.77;94386.69;4983932;28;20500;-73
2022/05/27 03:57:03;;;;;;;4.82;2.60;;;;;;;19.78;46.20;94384.84;4983712;28;20026;-73
2022/05/27 03:59:29;;;;;;;6.97;2.38;;;;;;;19.81;46.89;94381.41;4980227;28;20474;-73
2022/05/27 04:01:56;;;;;;;4.95;2.20;;;;;;;19.87;46.79;94377.28;4980663;28;20232;-74
2022/05/27 04:04:26;;;;;;;3.95;2.55;;;;;;;19.99;47.13;94385.25;4981711;28;20120;-73
2022/05/27 04:06:52;;;;;;;4.45;2.58;;;;;;;20.07;45.97;94381.53;4978820;28;20066;-73
2022/05/27 04:09:19;;;;;;;3.78;2.83;;;;;;;20.09;46.54;94385.41;4973958;28;20110;-73
2022/05/27 04:11:45;;;;;;;5.18;2.58;;;;;;;20.04;45.09;94387.66;4980325;28;20030;-73
2022/05/27 04:14:12;;;;;;;3.92;2.83;;;;;;;19.90;45.32;94385.44;4979362;28;20277;-73
2022/05/27 04:16:37;;;;;;;6.85;2.45;;;;;;;20.11;45.72;94390.47;4980872;28;20480;-73
2022/05/27 04:19:03;;;;;;;4.90;3.08;;;;;;;20.25;45.06;94382.63;4982692;28;20033;-73
2022/05/27 04:21:29;;;;;;;4.68;2.42;;;;;;;20.28;45.25;94390.03;4980936;28;20049;-71
2022/05/27 04:23:55;;;;;;;5.38;3.28;;;;;;;20.35;45.13;94389.34;4979727;28;20109;-73
2022/05/27 04:26:21;;;;;;;3.80;2.90;;;;;;;20.34;45.82;94385.88;4981941;28;20046;-72
2022/05/27 04:28:47;;;;;;;4.78;3.08;;;;;;;20.22;46.00;94366.38;4982113;28;20465;-73
2022/05/27 04:31:12;;;;;;;8.05;3.60;;;;;;;20.34;46.76;94383.16;4981212;28;20154;-73
2022/05/27 04:33:38;;;;;;;6.07;3.13;;;;;;;20.42;46.51;94386.78;4983321;28;20046;-73
2022/05/27 04:36:06;;;;;;;4.85;3.33;;;;;;;20.50;46.04;94381.13;4983500;28;20039;-73
2022/05/27 04:38:33;;;;;;;4.63;3.13;;;;;;;20.53;45.36;94390.44;4980096;28;20038;-72
2022/05/27 04:40:58;;;;;;;5.38;4.03;;;;;;;20.53;45.15;94366.13;4983216;28;20490;-73
2022/05/27 04:43:24;;;;;;;5.38;3.13;;;;;;;20.46;45.80;94369.47;4982907;28;20073;-72
2022/05/27 04:45:49;;;;;;;4.30;3.33;;;;;;;20.73;44.75;94386.47;4981837;28;20038;-73
2022/05/27 04:48:17;;;;;;;7.32;3.60;;;;;;;20.56;44.56;94387.00;4979411;28;20046;-71
2022/05/27 04:50:42;;;;;;;6.53;4.03;;;;;;;20.59;44.78;94384.34;4982347;28;20026;-73
2022/05/27 04:53:09;;;;;;;5.53;4.03;;;;;;;20.46;45.13;94393.81;4980350;28;20074;-73
2022/05/27 04:55:36;;;;;;;6.75;3.90;;;;;;;20.58;45.37;94390.91;4980973;28;20104;-72
2022/05/27 04:58:02;;;;;;;6.63;3.78;;;;;;;20.64;45.71;94383.25;4983621;28;20053;-73
2022/05/27 05:00:33;;;;;;;6.10;4.43;;;;;;;20.79;45.35;94381.56;4980495;28;20126;-73
2022/05/27 05:02:59;;;;;;;6.25;4.10;;;;;;;20.83;45.09;94374.28;4981055;28;20333;-73
2022/05/27 05:05:28;;;;;;;6.40;4.10;;;;;;;20.93;45.69;94373.66;4977165;28;20291;-73
2022/05/27 05:08:01;;;;;;;8.35;3.97;;;;;;;21.02;45.65;94376.91;4980231;28;20035;-72
2022/05/27 05:10:27;;;;;;;6.95;4.30;;;;;;;20.96;45.47;94376.44;4980533;28;20128;-72
2022/05/27 05:12:53;;;;;;;9.63;3.58;;;;;;;20.77;44.76;94375.75;4982460;28;20559;-73
2022/05/27 05:15:19;;;;;;;9.23;3.58;;;;;;;20.72;44.70;94373.34;4978861;28;20022;-71
2022/05/27 05:17:45;;;;;;;6.47;3.92;;;;;;;20.85;45.77;94374.69;4980797;28;20548;-73
2022/05/27 05:20:13;;;;;;;6.82;3.10;;;;;;;21.05;43.80;94376.19;4985260;28;20048;-73
2022/05/27 05:22:39;;;;;;;4.93;2.40;;;;;;;20.96;42.86;94373.75;4980005;28;20092;-72
2022/05/27 05:25:06;;;;;;;6.22;2.80;;;;;;;21.04;43.92;94380.03;4982689;28;20038;-72
2022/05/27 05:27:31;;;;;;;2.97;2.60;;;;;;;21.18;43.00;94363.97;4983446;28;20495;-73
2022/05/27 05:29:57;;;;;;;4.20;2.70;;;;;;;20.93;42.80;94376.38;4986507;28;20026;-73
2022/05/27 05:32:23;;;;;;;6.30;2.67;;;;;;;21.05;42.95;94378.88;4981380;28;20042;-71
2022/05/27 05:34:51;;;;;;;7.38;2.85;;;;;;;20.95;42.75;94376.81;4984614;28;20824;-72
2022/05/27 05:37:16;;;;;;;4.28;2.67;;;;;;;21.09;43.26;94368.09;4983725;28;20046;-73
2022/05/27 05:39:44;;;;;;;11.10;2.50;;;;;;;21.43;42.73;94370.50;4986142;28;20048;-73
2022/05/27 05:42:09;;;;;;;3.30;2.47;;;;;;;21.51;42.30;94378.72;4985657;28;20030;-72
2022/05/27 05:44:35;;;;;;;6.25;3.30;;;;;;;21.20;42.34;94364.41;4981524;28;20532;-72
2022/05/27 05:47:02;;;;;;;4.55;2.60;;;;;;;21.58;42.57;94378.81;4984890;28;20054;-73
2022/05/27 05:49:28;;;;;;;6.07;3.03;;;;;;;21.54;42.65;94377.97;4984409;28;20037;-72
2022/05/27 05:51:56;;;;;;;5.15;2.28;;;;;;;21.51;42.12;94373.28;4984343;28;20104;-73
2022/05/27 05:54:23;;;;;;;5.03;2.35;;;;;;;21.59;41.56;94377.66;4983513;28;20104;-72
2022/05/27 05:56:50;;;;;;;3.67;2.28;;;;;;;21.64;42.02;94370.00;4984927;28;20050;-72
2022/05/27 05:59:17;;;;;;;6.22;2.58;;;;;;;21.64;41.12;94382.75;4987398;28;20056;-70
2022/05/27 06:01:43;;;;;;;4.63;2.00;;;;;;;21.67;41.57;94368.47;4982976;28;20056;-72
2022/05/27 06:04:09;;;;;;;5.47;2.20;;;;;;;21.67;41.03;94355.72;4985002;28;20045;-72
2022/05/27 06:06:35;;;;;;;6.07;2.45;;;;;;;21.03;41.79;94376.53;4982794;28;20072;-72
2022/05/27 06:09:01;;;;;;;3.40;2.20;;;;;;;20.85;42.07;94364.66;4983821;28;20034;-73
2022/05/27 06:11:28;;;;;;;3.72;2.22;;;;;;;21.19;41.66;94387.19;4976369;28;20031;-73
2022/05/27 06:13:53;;;;;;;2.60;1.80;;;;;;;21.11;42.56;94385.53;4979674;28;20030;-72
2022/05/27 06:16:18;;;;;;;2.92;2.25;;;;;;;21.16;42.75;94381.75;4983104;28;20034;-72
2022/05/27 06:18:45;;;;;;;7.00;1.85;;;;;;;20.94;42.69;94369.84;4980293;28;20404;-73
2022/05/27 06:21:10;;;;;;;2.83;1.80;;;;;;;20.59;44.03;94378.94;4983985;28;20040;-73
2022/05/27 06:23:36;;;;;;;4.28;2.47;;;;;;;20.54;42.91;94379.25;4981801;28;20997;-73
2022/05/27 06:26:05;;;;;;;5.50;2.38;;;;;;;20.46;44.09;94382.22;4986655;28;20076;-73
2022/05/27 06:36:44;;;;;;;6.28;2.45;;;;;;;20.77;43.29;94386.56;4985489;28;20046;-73
2022/05/27 06:39:10;;;;;;;2.75;2.10;;;;;;;20.99;43.44;94383.03;4983420;28;20022;-71
2022/05/27 06:41:36;;;;;;;3.30;2.25;;;;;;;21.08;43.20;94372.72;4980864;28;20034;-73
2022/05/27 06:44:03;;;;;;;3.58;1.73;;;;;;;21.31;43.10;94373.44;4985296;28;20038;-72
2022/05/27 06:46:29;;;;;;;3.22;2.10;;;;;;;21.37;42.82;94366.53;4983375;28;20034;-73
2022/05/27 06:48:55;;;;;;;5.93;2.45;;;;;;;21.53;41.85;94358.22;4983849;28;20046;-73
2022/05/27 06:51:20;;;;;;;3.35;2.28;;;;;;;21.66;41.91;94350.66;4981487;28;20481;-73
2022/05/27 06:53:46;;;;;;;3.03;1.80;;;;;;;21.62;41.25;94353.34;4984630;28;20118;-72
2022/05/27 06:56:13;;;;;;;3.92;1.70;;;;;;;21.90;41.51;94360.22;4978491;28;20043;-72
2022/05/27 06:58:40;;;;;;;2.55;1.65;;;;;;;21.80;41.43;94356.25;4978325;28;20513;-72
2022/05/27 07:01:09;;;;;;;4.22;2.00;;;;;;;21.88;41.35;94357.88;4983515;28;20073;-72
2022/05/27 07:03:37;;;;;;;4.25;2.28;;;;;;;21.90;41.81;94355.59;4981557;28;20121;-72
2022/05/27 07:06:04;;;;;;;7.07;2.08;;;;;;;22.13;41.96;94348.06;4981531;28;20381;-72
2022/05/27 07:08:29;;;;;;;3.70;1.80;;;;;;;22.16;40.52;94355.44;4982845;28;20042;-71
2022/05/27 07:10:55;;;;;;;3.83;1.95;;;;;;;22.09;41.12;94358.09;4982195;28;20035;-72
2022/05/27 07:13:20;;;;;;;2.25;2.03;;;;;;;22.00;41.64;94357.59;4982078;28;20042;-71
2022/05/27 07:15:45;;;;;;;4.13;2.25;;;;;;;22.36;40.93;94342.47;4982977;28;20069;-73
2022/05/27 07:18:11;;;;;;;4.03;2.22;;;;;;;22.59;40.35;94336.84;4983359;28;20061;-73
2022/05/27 07:20:37;;;;;;;4.20;2.33;;;;;;;22.58;40.74;94338.78;4981842;28;20039;-72
2022/05/27 07:23:04;;;;;;;2.42;1.50;;;;;;;22.61;39.78;94340.75;4982904;28;20100;-73
2022/05/27 07:25:34;;;;;;;2.50;2.03;;;;;;;22.41;40.34;94312.31;4982919;28;20137;-73
2022/05/27 07:28:04;;;;;;;3.80;1.90;;;;;;;22.66;40.04;94321.41;4983886;28;20456;-73
2022/05/27 07:30:29;;;;;;;6.15;4.18;;;;;;;22.73;40.78;94304.41;4982222;28;20520;-72
2022/05/27 07:32:55;;;;;;;8.70;2.05;;;;;;;22.71;40.20;94279.59;4984257;28;20081;-72
2022/05/27 07:35:20;;;;;;;4.75;2.22;;;;;;;23.32;39.21;94324.13;4982962;28;20042;-73
2022/05/27 07:37:47;;;;;;;7.85;2.30;;;;;;;23.25;39.53;94318.66;4983478;28;20034;-73
2022/05/27 07:40:12;;;;;;;3.78;2.03;;;;;;;23.06;39.41;94314.31;4981212;28;20333;-73
2022/05/27 07:42:38;;;;;;;3.70;1.70;;;;;;;22.60;40.63;94311.28;4981019;28;20505;-73
2022/05/27 07:45:05;;;;;;;6.40;2.30;;;;;;;22.82;39.68;94307.56;4981348;28;20053;-73
2022/05/27 07:47:31;;;;;;;4.22;2.35;;;;;;;22.56;40.55;94313.19;4977763;28;20058;-72
2022/05/27 07:49:57;;;;;;;2.65;1.88;;;;;;;22.41;41.10;94312.31;4978074;28;20042;-73
2022/05/27 07:52:23;;;;;;;4.10;1.83;;;;;;;22.76;41.92;94308.28;4971680;28;20043;-73
2022/05/27 07:54:50;;;;;;;2.55;2.00;;;;;;;22.72;40.45;94306.34;4968109;28;20030;-72
2022/05/27 07:57:27;;;;;;;2.78;2.47;;;;;;;22.98;40.62;94308.06;4979129;28;20484;-74
2022/05/27 07:59:55;;;;;;;2.83;2.28;;;;;;;22.82;41.06;94313.00;4978819;28;20041;-73
2022/05/27 08:02:21;;;;;;;4.28;3.38;;;;;;;22.41;40.60;94314.25;4979312;28;20050;-73
2022/05/27 08:04:47;;;;;;;5.93;3.05;;;;;;;22.72;41.31;94300.16;4975555;28;20074;-72
2022/05/27 08:07:12;;;;;;;2.40;1.75;;;;;;;22.58;40.31;94308.19;4975845;28;20046;-72
2022/05/27 08:09:38;;;;;;;4.15;2.50;;;;;;;22.54;40.81;94310.84;4978661;28;20481;-72
2022/05/27 08:12:05;;;;;;;5.32;2.45;;;;;;;22.55;40.89;94304.28;4979527;28;20031;-72
2022/05/27 08:14:31;;;;;;;3.28;1.95;;;;;;;22.93;39.80;94303.00;4979910;28;20065;-73
2022/05/27 08:16:56;;;;;;;3.80;2.45;;;;;;;23.09;40.78;94303.47;4979665;28;20338;-72
2022/05/27 08:19:22;;;;;;;4.30;1.95;;;;;;;22.91;39.83;94283.63;4978239;28;20039;-73
2022/05/27 08:21:47;;;;;;;4.60;2.35;;;;;;;22.86;40.71;94300.25;4979189;28;20397;-72
2022/05/27 08:24:13;;;;;;;5.82;2.10;;;;;;;23.00;40.13;94270.50;4980973;28;20112;-73
2022/05/27 08:26:39;;;;;;;3.70;2.42;;;;;;;23.33;39.35;94287.66;4980232;28;20042;-73
2022/05/27 08:29:04;;;;;;;6.82;2.15;;;;;;;23.37;39.49;94283.81;4975616;28;20687;-73
2022/05/27 08:31:30;;;;;;;5.00;3.35;;;;;;;23.38;39.69;94290.00;4980554;28;20132;-72
2022/05/27 08:39:23;;;;;;;5.50;2.80;;;;;;;23.24;39.95;94284.53;4977676;28;20041;-72
2022/05/27 08:42:46;;;;;;;4.78;2.10;;;;;;;23.03;40.39;94275.16;4977842;28;20027;-73
2022/05/27 08:45:22;;;;;;;8.77;2.85;;;;;;;22.78;40.68;94268.78;4950209;28;20047;-72
2022/05/27 08:47:54;;;;;;;9.05;3.08;;;;;;;23.02;42.48;94267.41;4953242;28;20058;-72
2022/05/27 08:50:26;;;;;;;4.82;2.97;;;;;;;23.25;41.38;94258.97;4966249;28;20088;-72
2022/05/27 08:53:29;;;;;;;6.40;2.50;;;;;;;23.21;39.84;94274.44;4977226;28;20077;-72
2022/05/27 09:01:42;;;;;;;4.45;2.65;;;;;;;23.67;40.43;94258.31;4983488;28;20480;-73
2022/05/27 09:04:19;;;;;;;3.97;2.55;;;;;;;23.50;41.04;94259.84;4982464;28;20037;-72
2022/05/27 09:06:50;;;;;;;6.30;2.47;;;;;;;23.62;40.29;94262.19;4986991;28;20038;-72
2022/05/27 09:09:24;;;;;;;4.93;2.97;;;;;;;23.53;39.84;94253.63;4986214;28;20021;-73
2022/05/27 09:12:08;;;;;;;;;;;;;;;23.19;40.15;94257.75;4986345;28;20030;-72
2022/05/27 09:14:36;;;;;;;6.57;3.20;;;;;;;23.45;40.67;94246.63;4985035;28;19926;-73
2022/05/27 09:17:07;;;;;;;4.63;2.70;;;;;;;23.38;39.88;94252.00;4985606;28;20053;-72
2022/05/27 09:19:41;;;;;;;5.55;3.45;;;;;;;23.20;40.40;94246.53;4984476;28;20044;-72
2022/05/27 09:22:23;;;;;;;4.63;3.03;;;;;;;23.02;40.92;94245.72;4982730;28;20038;-72
2022/05/27 09:25:11;;;;;;;7.20;3.30;;;;;;;23.13;40.56;94244.56;4982037;28;20505;-72
2022/05/27 09:27:51;;;;;;;4.75;2.80;;;;;;;23.18;40.64;94240.72;4981498;28;20032;-72
2022/05/27 09:30:18;;;;;;;4.55;3.20;;;;;;;22.86;40.59;94226.22;4984659;28;20030;-73
2022/05/27 09:32:50;;;;;;;7.18;3.33;;;;;;;23.39;40.85;94238.06;4986305;28;20041;-73
2022/05/27 09:35:25;;;;;;;12.30;3.92;;;;;;;23.64;42.10;94235.44;4983910;28;20034;-71
2022/05/27 09:37:53;;;;;;;5.75;2.88;;;;;;;23.84;40.29;94235.84;4986704;28;20067;-73
2022/05/27 09:40:37;;;;;;;4.05;2.90;;;;;;;23.80;39.39;94224.22;4975349;28;20034;-74
2022/05/27 09:43:29;;;;;;;6.93;3.37;;;;;;;23.91;39.19;94227.69;4980276;28;20042;-72
2022/05/27 09:45:58;;;;;;;4.93;3.20;;;;;;;23.56;39.17;94220.31;4978627;28;20323;-73
2022/05/27 09:48:24;;;;;;;7.85;3.65;;;;;;;23.71;39.29;94211.00;4984202;28;20599;-73
2022/05/27 09:50:49;;;;;;;6.57;3.72;;;;;;;23.91;39.12;94208.66;4985681;28;20030;-73
2022/05/27 09:53:18;;;;;;;6.22;2.38;;;;;;;23.86;39.20;94206.34;4986582;28;20057;-72
2022/05/27 09:56:00;;;;;;;8.82;3.40;;;;;;;23.75;38.69;94208.28;4980188;28;20941;-72
2022/05/27 09:58:28;;;;;;;4.57;3.28;;;;;;;23.91;39.33;94204.00;4964750;28;20809;-72
2022/05/27 10:00:54;;;;;;;7.95;3.25;;;;;;;24.04;39.29;94198.22;4963329;28;20151;-73
2022/05/27 10:03:28;;;;;;;7.05;2.50;;;;;;;24.38;39.54;94196.63;4964272;28;20416;-73
2022/05/27 10:06:01;;;;;;;4.55;3.05;;;;;;;24.60;38.50;94194.63;4982657;28;20053;-72
2022/05/27 10:08:37;;;;;;;4.95;2.67;;;;;;;24.79;38.00;94192.25;4986734;28;20034;-73
2022/05/27 10:11:14;;;;;;;8.25;2.58;;;;;;;24.89;37.41;94181.72;4983486;28;20034;-73
2022/05/27 10:13:41;;;;;;;7.10;2.78;;;;;;;25.01;39.40;94159.53;4979884;28;20046;-71
2022/05/27 10:16:22;;;;;;;4.80;2.90;;;;;;;25.27;39.80;94178.06;4982389;28;20034;-73
2022/05/27 10:18:47;;;;;;;7.78;3.42;;;;;;;25.12;37.71;94166.47;4980740;28;20126;-73
2022/05/27 10:21:20;;;;;;;4.20;2.65;;;;;;;25.03;37.58;94178.97;4987542;28;20026;-73
2022/05/27 10:23:50;;;;;;;3.78;2.78;;;;;;;24.74;38.38;94170.13;4983320;28;20073;-72
2022/05/27 10:26:34;;;;;;;4.93;3.10;;;;;;;25.16;38.41;94166.47;4981556;28;20054;-72
2022/05/27 10:29:12;;;;;;;8.67;3.77;;;;;;;24.92;37.16;94162.69;4982766;28;20121;-73
2022/05/27 10:31:51;;;;;;;8.15;3.63;;;;;;;24.75;37.87;94153.44;4983101;28;20038;-72
2022/05/27 10:34:35;;;;;;;4.55;2.60;;;;;;;24.98;37.86;94150.19;4981731;28;20121;-72
2022/05/27 10:37:03;;;;;;;4.68;3.20;;;;;;;24.96;37.92;94146.34;4983875;28;20627;-72
2022/05/27 10:39:39;;;;;;;4.78;2.67;;;;;;;25.12;38.21;94143.94;4984904;28;20497;-74
2022/05/27 10:42:05;;;;;;;7.72;2.72;;;;;;;25.13;37.51;94142.75;4979620;28;20109;-73
2022/05/27 10:44:36;;;;;;;12.57;3.10;;;;;;;25.22;37.20;94143.09;4982784;28;20034;-72
2022/05/27 10:47:09;;;;;;;4.25;1.85;;;;;;;25.01;36.36;94122.22;4982464;28;20535;-72
2022/05/27 10:49:52;;;;;;;5.57;2.40;;;;;;;25.11;36.32;94137.72;4981161;28;20057;-72
2022/05/27 10:52:40;;;;;;;4.93;2.38;;;;;;;24.90;35.87;94126.94;4978575;28;20042;-72
2022/05/27 10:55:18;;;;;;;3.80;2.45;;;;;;;25.06;36.15;94131.91;4972494;28;20034;-71
2022/05/27 11:03:34;;;;;;;5.85;2.25;;;;;;;25.23;37.03;94123.63;4978292;28;20076;-73
2022/05/27 11:06:20;;;;;;;2.45;1.90;;;;;;;25.32;34.67;94117.78;4976703;28;20025;-72
2022/05/27 11:09:03;;;;;;;2.92;1.75;;;;;;;25.48;34.21;94115.31;4979240;28;20065;-72
2022/05/27 11:11:42;;;;;;;2.40;1.70;;;;;;;25.16;33.40;94112.03;4971427;28;20553;-72
2022/05/27 11:17:50;;;;;;;2.53;1.92;;;;;;;25.46;35.74;94100.56;4973648;28;20116;-72
2022/05/27 11:20:34;;;;;;;4.05;2.70;;;;;;;25.55;35.70;94104.38;4973756;28;20453;-73
2022/05/27 11:23:28;;;;;;;4.93;1.75;;;;;;;25.68;34.90;94099.22;4974953;28;20040;-71
2022/05/27 11:26:12;;;;;;;4.45;1.80;;;;;;;25.83;35.07;94094.41;4975529;28;20781;-72
2022/05/27 11:29:08;;;;;;;3.90;2.50;;;;;;;25.65;35.04;94089.91;4977860;28;20034;-73
2022/05/27 11:32:21;;;;;;;4.35;2.38;;;;;;;25.67;34.42;94076.63;4980155;28;20050;-73
2022/05/27 11:35:25;;;;;;;2.85;2.30;;;;;;;25.85;35.58;94079.22;4960460;28;20043;-72
2022/05/27 11:37:59;;;;;;;2.55;2.25;;;;;;;25.76;34.27;94067.25;4886404;29;20043;-73
2022/05/27 11:40:51;;;;;;;6.18;1.48;;;;;;;25.75;33.93;94061.03;4956752;28;20133;-73
2022/05/27 11:43:54;;;;;;;5.88;2.35;;;;;;;25.70;33.32;94059.50;4981153;28;20068;-73
2022/05/27 11:46:52;;;;;;;2.78;2.08;;;;;;;25.42;34.79;94043.41;4981843;28;20047;-72
2022/05/27 11:49:35;;;;;;;8.82;2.13;;;;;;;25.68;34.91;94050.97;4970211;28;20058;-72
2022/05/27 11:52:05;;;;;;;3.83;2.08;;;;;;;25.69;34.66;94047.06;4982263;28;20105;-72
2022/05/27 11:55:15;;;;;;;4.90;2.38;;;;;;;25.52;33.76;94037.09;4979887;28;20041;-73
2022/05/27 11:57:43;;;;;;;6.55;1.90;;;;;;;25.83;34.13;94029.03;4980889;28;20026;-71
2022/05/27 12:00:18;;;;;;;9.38;2.53;;;;;;;25.64;34.41;94036.59;4981602;28;20027;-73
2022/05/27 12:03:04;;;;;;;8.73;2.20;;;;;;;25.81;33.86;94023.22;4983838;28;20042;-72
2022/05/27 12:05:36;;;;;;;3.65;2.28;;;;;;;26.01;34.52;94018.72;4981216;28;20602;-71
2022/05/27 12:08:04;;;;;;;2.75;1.65;;;;;;;26.19;34.43;94015.81;4981303;28;20133;-73
2022/05/27 12:10:47;;;;;;;6.13;2.08;;;;;;;26.26;32.98;94019.22;4979055;28;20473;-73
2022/05/27 12:14:01;;;;;;;3.35;1.65;;;;;;;26.20;33.77;94004.53;4979688;28;20042;-72
2022/05/27 12:16:31;;;;;;;3.95;2.53;;;;;;;26.18;33.54;94012.31;4955441;28;20045;-73
2022/05/27 12:19:17;;;;;;;5.80;2.30;;;;;;;25.93;32.77;94007.16;4965676;28;20545;-72
2022/05/27 12:21:47;;;;;;;13.00;2.20;;;;;;;26.16;33.13;94008.44;4975700;28;20484;-73
2022/05/27 12:24:47;;;;;;;6.45;1.88;;;;;;;26.27;32.50;94003.63;4970043;28;20030;-73
2022/05/27 12:27:15;;;;;;;2.70;1.77;;;;;;;26.40;32.41;93997.22;4967371;28;20053;-73
2022/05/27 12:29:43;;;;;;;3.65;1.77;;;;;;;26.44;31.90;93992.53;4975853;28;20031;-73